Seattle, Washington
Traffic Map
Current Weather Conditions
Seattle, Washington
Clear
Clear
18°
Feels Like: 18°
Wind Chill: 18° Ceiling: Unl
Heat Index: 18° Visibility: 10mi
Dew Point: 12° Wind: 0mph
Humidity: 65% Direction: ° ()
Pressure: 30.1in Gusts: 0mph
Raw Report DataKBFI 280953Z 00000KT 10SM CLR 18/12 A3010 RMK AO2 SLP191 T01830117
Traffic Incident Summary
Active as of:
Severity:
Category:
InformationThere was an issue retrieving the traffic information for this location. Please try a different location or try again shortly.
Advertisements
Track Severe Weather on mobile